createdAt,value
2022-08-22T00:01:14.689Z,3.78
2022-08-22T00:04:33.465Z,3.97
2022-08-22T00:07:56.429Z,2.88
2022-08-22T00:11:12.350Z,4.43
2022-08-22T00:14:26.155Z,2.90
2022-08-22T00:17:43.845Z,3.78
2022-08-22T00:20:56.009Z,2.22
2022-08-22T00:24:16.822Z,2.75
2022-08-22T00:27:29.839Z,2.45
2022-08-22T00:30:49.047Z,3.55
2022-08-22T00:34:00.635Z,3.38
2022-08-22T00:37:19.521Z,3.83
2022-08-22T00:40:39.432Z,4.50
2022-08-22T00:44:05.642Z,2.30
2022-08-22T00:47:45.891Z,3.75
2022-08-22T00:51:13.230Z,3.85
2022-08-22T00:54:30.895Z,2.55
2022-08-22T00:58:09.151Z,3.80
2022-08-22T01:01:18.591Z,3.40
2022-08-22T01:04:41.658Z,3.22
2022-08-22T01:08:12.653Z,3.60
2022-08-22T01:11:42.677Z,3.03
2022-08-22T01:14:52.596Z,3.88
2022-08-22T01:18:32.594Z,3.10
2022-08-22T01:22:15.747Z,3.58
2022-08-22T01:26:01.914Z,3.55
2022-08-22T01:29:50.795Z,2.75
2022-08-22T01:33:32.920Z,3.33
2022-08-22T01:37:07.983Z,3.22
2022-08-22T01:40:54.485Z,4.18
2022-08-22T01:44:24.753Z,3.40
2022-08-22T01:47:39.608Z,3.38
2022-08-22T01:50:49.025Z,4.20
2022-08-22T01:54:05.512Z,4.55
2022-08-22T01:57:12.201Z,4.40
2022-08-22T02:00:35.243Z,5.35
2022-08-22T02:03:47.041Z,3.85
2022-08-22T02:07:05.847Z,4.15
2022-08-22T02:10:21.387Z,5.05
2022-08-22T02:13:49.914Z,4.25
2022-08-22T02:17:01.939Z,3.60
2022-08-22T02:20:21.341Z,3.75
2022-08-22T02:23:33.247Z,4.68
2022-08-22T02:26:50.414Z,4.38
2022-08-22T02:30:06.561Z,4.78
2022-08-22T02:33:19.759Z,3.75
2022-08-22T02:36:31.452Z,4.20
2022-08-22T02:39:47.718Z,4.25
2022-08-22T02:43:03.052Z,3.92
2022-08-22T02:46:22.655Z,4.30
2022-08-22T02:49:35.758Z,3.70
2022-08-22T02:53:02.994Z,4.15
2022-08-22T02:56:15.933Z,4.82
2022-08-22T02:59:39.203Z,4.28
2022-08-22T03:03:02.879Z,3.40
2022-08-22T03:06:32.752Z,4.53
2022-08-22T03:09:43.415Z,4.40
2022-08-22T03:13:01.448Z,3.60
2022-08-22T03:16:17.056Z,3.80
2022-08-22T03:19:35.063Z,4.05
2022-08-22T03:22:49.629Z,3.70
2022-08-22T03:26:09.337Z,4.75
2022-08-22T03:29:20.509Z,3.22
2022-08-22T03:32:53.631Z,3.83
2022-08-22T03:36:09.046Z,3.42
2022-08-22T03:39:23.515Z,3.45
2022-08-22T03:43:00.145Z,3.00
2022-08-22T03:46:49.541Z,3.25
2022-08-22T03:50:17.125Z,4.45
2022-08-22T03:53:57.134Z,3.40
2022-08-22T03:57:43.400Z,5.20
2022-08-22T04:01:22.716Z,2.80
2022-08-22T04:05:00.959Z,3.55
2022-08-22T04:08:49.532Z,3.15
2022-08-22T04:12:13.568Z,4.88
2022-08-22T04:15:42.839Z,4.60
2022-08-22T04:19:03.673Z,3.60
2022-08-22T04:22:45.233Z,3.28
2022-08-22T04:25:59.846Z,3.40
2022-08-22T04:29:21.664Z,3.33
2022-08-22T04:32:36.849Z,2.90
2022-08-22T04:35:53.297Z,4.30
2022-08-22T04:39:05.855Z,4.65
2022-08-22T04:42:34.873Z,3.80
2022-08-22T04:45:44.961Z,5.20
2022-08-22T04:48:58.627Z,3.40
2022-08-22T04:52:14.673Z,3.85
2022-08-22T04:55:38.444Z,4.18
2022-08-22T04:58:50.897Z,4.45
2022-08-22T05:02:06.358Z,4.38
2022-08-22T05:05:17.225Z,4.00
2022-08-22T05:08:28.652Z,3.97
2022-08-22T05:11:35.389Z,4.30
2022-08-22T05:14:50.298Z,3.15
2022-08-22T05:18:03.899Z,5.15
2022-08-22T05:21:13.902Z,4.30
2022-08-22T05:24:27.886Z,3.92
2022-08-22T05:27:43.653Z,3.60
2022-08-22T05:30:53.343Z,3.72
2022-08-22T05:34:06.751Z,3.17
2022-08-22T05:37:18.025Z,4.13
2022-08-22T05:40:30.033Z,3.83
2022-08-22T05:43:40.901Z,5.25
2022-08-22T05:46:54.459Z,4.38
2022-08-22T05:50:05.109Z,5.13
2022-08-22T05:53:16.138Z,3.72
2022-08-22T05:56:28.497Z,5.13
2022-08-22T05:59:43.908Z,4.30
2022-08-22T06:03:04.586Z,5.18
2022-08-22T06:06:18.685Z,4.15
2022-08-22T06:09:35.454Z,4.05
2022-08-22T06:12:48.261Z,4.50
2022-08-22T06:16:06.012Z,3.63
2022-08-22T06:19:19.827Z,3.45
2022-08-22T06:22:28.458Z,3.47
2022-08-22T06:25:37.979Z,3.97
2022-08-22T06:28:55.413Z,3.42
2022-08-22T06:35:19.083Z,3.55
2022-08-22T06:38:33.780Z,3.65
2022-08-22T06:41:43.988Z,4.43
2022-08-22T06:44:57.892Z,3.67
2022-08-22T06:48:20.451Z,5.15
2022-08-22T06:51:32.688Z,5.25
2022-08-22T06:54:43.726Z,3.85
2022-08-22T06:57:57.446Z,4.65
2022-08-22T07:01:12.062Z,3.78
2022-08-22T07:04:21.576Z,5.22
2022-08-22T07:07:31.842Z,3.53
2022-08-22T07:10:43.729Z,4.43
2022-08-22T07:17:03.408Z,4.97
2022-08-22T07:20:19.163Z,8.38
2022-08-22T07:23:37.083Z,7.38
2022-08-22T07:26:49.528Z,5.05
2022-08-22T07:30:10.152Z,5.60
2022-08-22T07:33:29.969Z,5.83
2022-08-22T07:36:50.455Z,5.47
2022-08-22T07:40:07.010Z,4.80
2022-08-22T07:43:26.851Z,4.93
2022-08-22T07:46:38.885Z,4.55
2022-08-22T07:49:53.999Z,5.43
2022-08-22T07:53:11.151Z,6.47
2022-08-22T07:56:37.397Z,6.07
2022-08-22T07:59:53.887Z,4.30
2022-08-22T08:03:18.317Z,4.05
2022-08-22T08:06:32.794Z,5.78
2022-08-22T08:09:58.352Z,5.88
2022-08-22T08:13:11.012Z,5.25
2022-08-22T08:16:22.822Z,4.25
2022-08-22T08:19:29.169Z,4.78
2022-08-22T08:22:41.847Z,4.93
2022-08-22T08:25:57.728Z,4.40
2022-08-22T08:29:09.402Z,4.03
2022-08-22T08:32:16.701Z,2.55
2022-08-22T08:35:27.028Z,3.58
2022-08-22T08:38:39.328Z,3.42
2022-08-22T08:42:11.538Z,5.43
2022-08-22T08:45:52.100Z,3.15
2022-08-22T08:49:25.185Z,5.90
2022-08-22T08:53:02.289Z,3.55
2022-08-22T08:56:26.721Z,2.97
2022-08-22T08:59:49.908Z,2.33
2022-08-22T09:03:30.263Z,2.78
2022-08-22T09:07:19.895Z,3.28
2022-08-22T09:10:53.668Z,6.90
2022-08-22T09:14:21.646Z,3.10
2022-08-22T09:18:04.898Z,3.70
2022-08-22T09:21:55.116Z,5.68
2022-08-22T09:25:38.386Z,4.55
2022-08-22T09:29:13.966Z,3.97
2022-08-22T09:32:34.296Z,4.03
2022-08-22T09:36:03.414Z,4.75
2022-08-22T09:39:31.200Z,3.42
2022-08-22T09:43:09.239Z,2.95
2022-08-22T09:46:37.629Z,2.55
2022-08-22T09:49:55.044Z,2.53
2022-08-22T09:53:13.239Z,4.57
2022-08-22T09:56:26.859Z,3.05
2022-08-22T09:59:54.816Z,5.00
2022-08-22T10:03:15.323Z,3.42
2022-08-22T10:06:28.636Z,4.20
2022-08-22T10:09:44.849Z,3.47
2022-08-22T10:13:04.287Z,2.38
2022-08-22T10:16:27.953Z,3.75
2022-08-22T10:19:40.641Z,4.57
2022-08-22T10:22:54.521Z,3.25
2022-08-22T10:26:12.716Z,3.28
2022-08-22T10:30:04.621Z,4.07
2022-08-22T10:33:19.070Z,3.63
2022-08-22T10:36:37.119Z,3.83
2022-08-22T10:39:49.040Z,3.08
2022-08-22T10:43:00.872Z,3.85
2022-08-22T10:46:17.748Z,4.43
2022-08-22T10:49:29.319Z,3.58
2022-08-22T10:52:47.437Z,3.03
2022-08-22T10:55:59.367Z,4.50
2022-08-22T10:59:19.527Z,2.97
2022-08-22T11:03:01.102Z,4.70
2022-08-22T11:06:18.427Z,2.53
2022-08-22T11:09:36.266Z,4.10
2022-08-22T11:12:49.441Z,3.70
2022-08-22T11:16:04.166Z,13.57
2022-08-22T11:19:32.095Z,340.67
2022-08-22T11:22:51.983Z,432.75
2022-08-22T11:26:13.648Z,467.63
2022-08-22T11:29:34.702Z,487.80
2022-08-22T11:33:07.278Z,456.48
2022-08-22T11:36:31.584Z,437.70
2022-08-22T11:39:47.192Z,423.45
2022-08-22T11:43:05.092Z,409.60
2022-08-22T11:46:27.104Z,388.63
2022-08-22T11:49:51.851Z,370.65
2022-08-22T11:53:17.775Z,346.30
2022-08-22T11:56:29.831Z,298.88
2022-08-22T12:00:00.038Z,291.65
2022-08-22T12:03:34.325Z,299.27
2022-08-22T12:07:00.674Z,297.90
2022-08-22T12:10:13.967Z,291.42
2022-08-22T12:13:36.355Z,271.02
2022-08-22T12:16:49.503Z,256.70
2022-08-22T12:20:16.394Z,261.17
2022-08-22T12:23:56.173Z,243.90
2022-08-22T12:27:33.303Z,232.05
2022-08-22T12:30:45.166Z,213.23
2022-08-22T12:34:12.063Z,205.48
2022-08-22T12:37:31.017Z,198.40
2022-08-22T12:40:59.933Z,174.50
2022-08-22T12:44:24.354Z,156.40
2022-08-22T12:47:42.247Z,136.10
2022-08-22T12:50:55.662Z,135.27
2022-08-22T12:54:26.724Z,123.15
2022-08-22T12:57:43.836Z,128.70
2022-08-22T13:00:55.308Z,129.37
2022-08-22T13:04:09.022Z,115.50
2022-08-22T13:07:29.160Z,104.43
2022-08-22T13:10:42.823Z,102.93
2022-08-22T13:13:57.387Z,92.72
2022-08-22T13:17:23.637Z,85.28
2022-08-22T13:20:37.363Z,78.20
2022-08-22T13:23:50.885Z,77.30
2022-08-22T13:27:06.013Z,70.72
2022-08-22T13:30:14.462Z,64.78
2022-08-22T13:33:31.424Z,61.58
2022-08-22T13:36:52.016Z,59.20
2022-08-22T13:40:04.746Z,52.20
2022-08-22T13:43:13.275Z,49.80
2022-08-22T13:46:30.734Z,43.88
2022-08-22T13:49:48.449Z,42.63
2022-08-22T13:53:03.832Z,41.50
2022-08-22T13:56:20.574Z,37.20
2022-08-22T13:59:50.400Z,31.20
2022-08-22T14:03:05.426Z,28.88
2022-08-22T14:06:41.274Z,28.90
2022-08-22T14:09:57.285Z,24.30
2022-08-22T14:13:41.609Z,22.38
2022-08-22T14:16:52.070Z,20.27
2022-08-22T14:20:04.992Z,19.83
2022-08-22T14:23:27.031Z,16.58
2022-08-22T14:26:47.939Z,15.10
2022-08-22T14:30:01.593Z,17.50
2022-08-22T14:33:16.179Z,13.15
2022-08-22T14:36:26.204Z,12.60
2022-08-22T14:39:44.207Z,13.43
2022-08-22T14:42:54.670Z,14.23
2022-08-22T14:46:07.340Z,11.85
2022-08-22T14:49:29.045Z,12.70
2022-08-22T14:52:41.031Z,12.38
2022-08-22T14:59:11.115Z,9.60
2022-08-22T15:02:32.727Z,9.50
2022-08-22T15:05:47.428Z,7.97
2022-08-22T15:08:54.401Z,8.90
2022-08-22T15:12:09.036Z,7.10
2022-08-22T15:15:29.983Z,6.90
2022-08-22T15:18:39.162Z,5.00
2022-08-22T15:21:44.739Z,8.05
2022-08-22T15:25:01.094Z,5.53
2022-08-22T15:28:14.452Z,6.63
2022-08-22T15:31:28.312Z,4.85
2022-08-22T15:34:39.855Z,5.80
2022-08-22T15:38:01.551Z,5.85
2022-08-22T15:41:36.767Z,4.07
2022-08-22T15:44:50.657Z,4.20
2022-08-22T15:47:57.463Z,5.88
2022-08-22T15:51:10.560Z,4.30
2022-08-22T15:54:25.492Z,5.55
2022-08-22T15:57:36.665Z,6.35
2022-08-22T16:00:48.036Z,4.15
2022-08-22T16:04:03.581Z,6.70
2022-08-22T16:07:25.803Z,5.43
2022-08-22T16:10:42.176Z,4.80
2022-08-22T16:13:48.912Z,4.03
2022-08-22T16:17:04.470Z,3.72
2022-08-22T16:20:45.397Z,3.38
2022-08-22T16:24:30.255Z,4.05
2022-08-22T16:27:39.997Z,4.45
2022-08-22T16:30:47.507Z,5.60
2022-08-22T16:34:23.150Z,4.00
2022-08-22T16:37:44.095Z,3.65
2022-08-22T16:40:51.695Z,4.17
2022-08-22T16:44:41.919Z,5.03
2022-08-22T16:48:02.438Z,2.42
2022-08-22T16:51:22.372Z,5.78
2022-08-22T16:54:46.499Z,3.22
2022-08-22T16:58:07.247Z,4.05
2022-08-22T17:01:21.836Z,3.80
2022-08-22T17:04:37.788Z,4.55
2022-08-22T17:07:57.620Z,5.90
2022-08-22T17:11:15.712Z,6.10
2022-08-22T17:14:37.990Z,5.25
2022-08-22T17:18:01.026Z,6.28
2022-08-22T17:21:26.136Z,2.92
2022-08-22T17:24:45.938Z,3.97
2022-08-22T17:27:57.226Z,21.83
2022-08-22T17:31:12.012Z,668.72
2022-08-22T17:34:32.242Z,1155.78
2022-08-22T17:37:52.208Z,951.08
2022-08-22T17:41:10.294Z,820.05
2022-08-22T17:44:30.649Z,704.47
2022-08-22T17:47:47.519Z,618.00
2022-08-22T17:50:58.950Z,570.70
2022-08-22T17:54:09.702Z,542.25
2022-08-22T17:57:32.876Z,509.52
2022-08-22T18:00:42.679Z,491.77
2022-08-22T18:04:01.125Z,457.52
2022-08-22T18:07:44.208Z,442.83
2022-08-22T18:10:58.358Z,405.40
2022-08-22T18:14:13.538Z,384.02
2022-08-22T18:17:24.679Z,362.33
2022-08-22T18:20:37.377Z,341.70
2022-08-22T18:23:49.625Z,319.73
2022-08-22T18:27:01.797Z,302.77
2022-08-22T18:30:22.889Z,292.30
2022-08-22T18:33:35.938Z,281.50
2022-08-22T18:36:54.819Z,273.08
2022-08-22T18:40:05.025Z,258.58
2022-08-22T18:43:23.586Z,238.60
2022-08-22T18:46:43.680Z,225.00
2022-08-22T18:49:57.154Z,209.55
2022-08-22T18:53:03.334Z,203.75
2022-08-22T18:56:15.518Z,187.95
2022-08-22T18:59:37.972Z,181.27
2022-08-22T19:03:21.976Z,166.30
2022-08-22T19:06:51.888Z,155.23
2022-08-22T19:10:34.804Z,144.35
2022-08-22T19:14:09.114Z,134.70
2022-08-22T19:17:39.987Z,132.35
2022-08-22T19:21:34.422Z,123.37
2022-08-22T19:25:10.023Z,105.60
2022-08-22T19:28:38.839Z,106.45
2022-08-22T19:31:52.659Z,93.40
2022-08-22T19:35:21.420Z,86.55
2022-08-22T19:38:57.049Z,80.53
2022-08-22T19:42:02.669Z,74.60
2022-08-22T19:45:25.902Z,66.00
2022-08-22T19:48:35.332Z,68.03
2022-08-22T19:51:42.838Z,62.67
2022-08-22T19:54:58.261Z,55.80
2022-08-22T19:58:13.646Z,58.13
2022-08-22T20:01:39.250Z,55.22
2022-08-22T20:05:03.843Z,53.13
2022-08-22T20:08:34.377Z,55.45
2022-08-22T20:11:51.941Z,45.15
2022-08-22T20:14:57.711Z,39.33
2022-08-22T20:18:47.271Z,41.25
2022-08-22T20:21:46.980Z,36.08
2022-08-22T20:24:57.744Z,36.97
2022-08-22T20:28:09.442Z,33.80
2022-08-22T20:31:25.211Z,33.58
2022-08-22T20:34:34.112Z,29.23
2022-08-22T20:38:05.821Z,29.30
2022-08-22T20:41:21.006Z,30.33
2022-08-22T20:44:34.196Z,26.67
2022-08-22T20:47:44.440Z,23.17
2022-08-22T20:50:55.244Z,22.63
2022-08-22T20:54:10.057Z,20.65
2022-08-22T20:57:23.438Z,19.80
2022-08-22T21:00:35.445Z,21.35
2022-08-22T21:03:46.662Z,18.90
2022-08-22T21:07:02.693Z,15.45
2022-08-22T21:10:36.508Z,15.13
2022-08-22T21:13:42.151Z,14.48
2022-08-22T21:16:53.395Z,13.32
2022-08-22T21:19:59.913Z,13.43
2022-08-22T21:23:09.857Z,11.50
2022-08-22T21:26:23.691Z,11.98
2022-08-22T21:29:34.144Z,11.55
2022-08-22T21:32:46.507Z,11.10
2022-08-22T21:36:00.442Z,10.85
2022-08-22T21:39:09.063Z,9.27
2022-08-22T21:42:26.167Z,9.55
2022-08-22T21:45:35.723Z,11.52
2022-08-22T21:48:59.871Z,9.05
2022-08-22T21:52:05.543Z,10.48
2022-08-22T21:55:19.034Z,7.38
2022-08-22T21:58:35.583Z,7.72
2022-08-22T22:01:45.802Z,6.90
2022-08-22T22:04:54.232Z,6.50
2022-08-22T22:08:01.939Z,5.22
2022-08-22T22:11:10.752Z,6.40
2022-08-22T22:14:18.325Z,5.43
2022-08-22T22:17:24.341Z,4.40
2022-08-22T22:20:35.196Z,5.13
2022-08-22T22:23:40.767Z,5.35
2022-08-22T22:26:48.290Z,4.57
2022-08-22T22:29:53.710Z,4.55
2022-08-22T22:33:01.734Z,4.13
2022-08-22T22:36:13.789Z,3.65
2022-08-22T22:39:21.423Z,3.60
2022-08-22T22:42:28.089Z,3.92
2022-08-22T22:45:35.685Z,4.25
2022-08-22T22:48:41.421Z,3.90
2022-08-22T22:51:52.481Z,3.03
2022-08-22T22:55:00.920Z,3.73
2022-08-22T22:58:08.919Z,3.42
2022-08-22T23:01:19.320Z,3.92
2022-08-22T23:04:26.768Z,2.60
2022-08-22T23:07:35.214Z,2.58
2022-08-22T23:10:42.633Z,3.92
2022-08-22T23:13:49.099Z,2.90
2022-08-22T23:16:57.824Z,2.63
2022-08-22T23:20:03.658Z,3.05
2022-08-22T23:23:14.249Z,2.55
2022-08-22T23:26:21.706Z,3.55
2022-08-22T23:29:29.678Z,3.47
2022-08-22T23:32:36.608Z,2.72
2022-08-22T23:35:44.336Z,3.13
2022-08-22T23:38:54.027Z,3.90
2022-08-22T23:42:02.546Z,3.25
2022-08-22T23:45:09.088Z,2.35
2022-08-22T23:48:16.607Z,2.00
2022-08-22T23:51:25.140Z,2.38
2022-08-22T23:54:35.776Z,3.08
2022-08-22T23:57:41.467Z,2.63
